createdAt,value
2023-01-02T00:00:26.002Z,100028.84
2023-01-02T00:02:53.808Z,100028.47
2023-01-02T00:05:21.418Z,100021.66
2023-01-02T00:07:48.903Z,100012.28
2023-01-02T00:10:16.429Z,100008.47
2023-01-02T00:12:43.994Z,100021.13
2023-01-02T00:15:12.120Z,100019.88
2023-01-02T00:17:40.958Z,100021.28
2023-01-02T00:20:09.475Z,100019.28
2023-01-02T00:22:37.421Z,100013.97
2023-01-02T00:25:05.669Z,100020.78
2023-01-02T00:27:33.183Z,100012.94
2023-01-02T00:30:00.673Z,100018.75
2023-01-02T00:32:28.199Z,100012.03
2023-01-02T00:34:56.973Z,100017.16
2023-01-02T00:37:24.477Z,100021.53
2023-01-02T00:39:51.940Z,100009.91
2023-01-02T00:42:19.429Z,100002.38
2023-01-02T00:44:46.904Z,99994.63
2023-01-02T00:47:14.396Z,99989.63
2023-01-02T00:49:41.875Z,99994.03
2023-01-02T00:52:10.754Z,99990.56
2023-01-02T00:54:38.245Z,99987.88
2023-01-02T00:57:05.761Z,99986.00
2023-01-02T00:59:33.217Z,99981.66
2023-01-02T01:02:00.836Z,99981.59
2023-01-02T01:04:28.539Z,99977.81
2023-01-02T01:06:56.062Z,99952.34
2023-01-02T01:09:24.943Z,99955.75
2023-01-02T01:11:52.415Z,99953.25
2023-01-02T01:14:20.041Z,99955.00
2023-01-02T01:16:47.553Z,99945.75
2023-01-02T01:19:15.181Z,99941.34
2023-01-02T01:21:42.720Z,99954.59
2023-01-02T01:24:10.217Z,99954.44
2023-01-02T01:26:39.037Z,99940.41
2023-01-02T01:29:06.580Z,99943.31
2023-01-02T01:31:34.264Z,99933.00
2023-01-02T01:34:01.814Z,99934.09
2023-01-02T01:36:29.311Z,99936.44
2023-01-02T01:38:56.807Z,99935.50
2023-01-02T01:41:25.735Z,99928.28
2023-01-02T01:43:56.365Z,99929.28
2023-01-02T01:46:27.689Z,99917.28
2023-01-02T01:49:01.072Z,99904.38
2023-01-02T01:51:31.031Z,99898.72
2023-01-02T01:54:02.256Z,99885.88
2023-01-02T01:56:30.057Z,99894.41
2023-01-02T01:58:59.166Z,99896.75
2023-01-02T02:01:26.819Z,99890.22
2023-01-02T02:03:54.414Z,99892.81
2023-01-02T02:06:21.899Z,99890.63
2023-01-02T02:08:53.721Z,99898.16
2023-01-02T02:11:21.287Z,99890.38
2023-01-02T02:13:49.755Z,99896.44
2023-01-02T02:16:26.557Z,99888.31
2023-01-02T02:19:05.196Z,99885.34
2023-01-02T02:21:47.364Z,99883.13
2023-01-02T02:24:30.914Z,99879.94
2023-01-02T02:27:03.326Z,99877.78
2023-01-02T02:29:53.626Z,99871.38
2023-01-02T02:32:24.879Z,99879.13
2023-01-02T02:34:59.505Z,99875.63
2023-01-02T02:37:32.060Z,99872.31
2023-01-02T02:40:05.414Z,99873.41
2023-01-02T02:42:42.722Z,99870.09
2023-01-02T02:45:18.354Z,99868.41
2023-01-02T02:47:50.449Z,99869.38
2023-01-02T02:50:22.245Z,99863.06
2023-01-02T02:52:53.647Z,99867.78
2023-01-02T02:55:24.438Z,99863.69
2023-01-02T02:57:52.964Z,99865.03
2023-01-02T03:00:24.140Z,99865.19
2023-01-02T03:02:51.759Z,99858.09
2023-01-02T03:05:23.997Z,99864.81
2023-01-02T03:07:55.025Z,99864.44
2023-01-02T03:10:24.783Z,99859.66
2023-01-02T03:12:56.552Z,99848.19
2023-01-02T03:15:31.703Z,99854.56
2023-01-02T03:18:05.500Z,99861.78
2023-01-02T03:20:35.507Z,99860.75
2023-01-02T03:23:06.779Z,99856.34
2023-01-02T03:25:35.595Z,99855.41
2023-01-02T03:28:05.610Z,99856.94
2023-01-02T03:30:35.133Z,99851.66
2023-01-02T03:33:05.146Z,99849.13
2023-01-02T03:35:35.156Z,99851.94
2023-01-02T03:38:03.946Z,99848.56
2023-01-02T03:40:35.145Z,99847.69
2023-01-02T03:43:06.646Z,99842.41
2023-01-02T03:45:38.020Z,99854.84
2023-01-02T03:48:15.549Z,99859.13
2023-01-02T03:50:45.504Z,99847.69
2023-01-02T03:53:13.076Z,99848.19
2023-01-02T03:55:42.962Z,99843.81
2023-01-02T03:58:13.646Z,99844.53
2023-01-02T04:00:46.111Z,99849.56
2023-01-02T04:03:15.564Z,99841.28
2023-01-02T04:05:45.712Z,99842.16
2023-01-02T04:08:19.670Z,99844.66
2023-01-02T04:10:54.565Z,99850.28
2023-01-02T04:13:28.421Z,99850.34
2023-01-02T04:15:58.000Z,99849.25
2023-01-02T04:18:29.095Z,99844.84
2023-01-02T04:21:00.088Z,99833.97
2023-01-02T04:23:30.752Z,99840.19
2023-01-02T04:26:02.941Z,99829.44
2023-01-02T04:28:32.071Z,99838.25
2023-01-02T04:31:05.245Z,99840.97
2023-01-02T04:33:33.556Z,99836.44
2023-01-02T04:36:08.765Z,99842.00
2023-01-02T04:38:36.227Z,99845.53
2023-01-02T04:41:04.013Z,99843.75
2023-01-02T04:43:31.532Z,99841.06
2023-01-02T04:45:59.009Z,99849.94
2023-01-02T04:48:27.829Z,99861.38
2023-01-02T04:50:55.312Z,99859.56
2023-01-02T04:53:22.997Z,99856.88
2023-01-02T04:55:56.313Z,99856.06
2023-01-02T04:58:23.782Z,99863.88
2023-01-02T05:00:51.243Z,99863.91
2023-01-02T05:03:18.786Z,99862.06
2023-01-02T05:05:47.833Z,99856.72
2023-01-02T05:08:16.521Z,99854.88
2023-01-02T05:10:44.238Z,99852.13
2023-01-02T05:13:11.769Z,99856.53
2023-01-02T05:15:39.235Z,99863.47
2023-01-02T05:18:06.708Z,99871.16
2023-01-02T05:20:34.160Z,99876.81
2023-01-02T05:23:20.443Z,99872.91
2023-01-02T05:25:47.913Z,99862.44
2023-01-02T05:28:15.401Z,99881.69
2023-01-02T05:30:42.873Z,99873.00
2023-01-02T05:33:10.371Z,99874.78
2023-01-02T05:35:37.869Z,99872.75
2023-01-02T05:38:06.653Z,99874.66
2023-01-02T05:40:34.161Z,99872.72
2023-01-02T05:43:01.629Z,99869.94
2023-01-02T05:45:29.164Z,99871.69
2023-01-02T05:47:56.658Z,99869.72
2023-01-02T05:50:24.125Z,99879.84
2023-01-02T05:52:51.625Z,99874.47
2023-01-02T05:55:20.387Z,99891.44
2023-01-02T05:57:47.842Z,99898.66
2023-01-02T06:00:16.250Z,99895.13
2023-01-02T06:02:48.084Z,99882.50
2023-01-02T06:05:16.266Z,99885.88
2023-01-02T06:07:43.761Z,99884.94
2023-01-02T06:10:11.480Z,99886.84
2023-01-02T06:12:40.273Z,99887.78
2023-01-02T06:15:08.930Z,99889.50
2023-01-02T06:17:36.388Z,99889.75
2023-01-02T06:20:04.127Z,99889.69
2023-01-02T06:22:31.586Z,99892.97
2023-01-02T06:24:59.086Z,99891.28
2023-01-02T06:27:26.566Z,99886.91
2023-01-02T06:29:55.585Z,99887.06
2023-01-02T06:32:23.111Z,99877.84
2023-01-02T06:34:50.602Z,99885.28
2023-01-02T06:37:18.091Z,99876.69
2023-01-02T06:39:45.540Z,99874.97
2023-01-02T06:42:13.889Z,99875.84
2023-01-02T06:44:41.376Z,99874.97
2023-01-02T06:47:10.162Z,99871.44
2023-01-02T06:49:37.637Z,99872.88
2023-01-02T06:52:05.436Z,99876.63
2023-01-02T06:54:33.581Z,99866.06
2023-01-02T06:57:01.136Z,99868.84
2023-01-02T06:59:28.607Z,99883.84
2023-01-02T07:01:56.175Z,99880.56
2023-01-02T07:04:25.018Z,99883.25
2023-01-02T07:06:52.489Z,99885.38
2023-01-02T07:09:19.984Z,99885.22
2023-01-02T07:11:47.458Z,99888.78
2023-01-02T07:14:14.937Z,99895.69
2023-01-02T07:16:42.496Z,99892.06
2023-01-02T07:19:10.037Z,99887.44
2023-01-02T07:21:38.791Z,99885.63
2023-01-02T07:24:07.020Z,99884.81
2023-01-02T07:26:34.502Z,99886.47
2023-01-02T07:29:01.972Z,99885.53
2023-01-02T07:31:30.146Z,99891.06
2023-01-02T07:33:58.951Z,99891.44
2023-01-02T07:36:26.483Z,99896.00
2023-01-02T07:38:57.221Z,99899.94
2023-01-02T07:41:25.800Z,99896.25
2023-01-02T07:43:54.961Z,99891.94
2023-01-02T07:46:22.491Z,99891.78
2023-01-02T07:48:50.462Z,99882.13
2023-01-02T07:51:24.561Z,99899.78
2023-01-02T07:53:55.789Z,99897.00
2023-01-02T07:56:23.236Z,99898.50
2023-01-02T07:58:51.503Z,99896.09
2023-01-02T08:01:19.160Z,99891.66
2023-01-02T08:03:46.753Z,99908.44
2023-01-02T08:06:15.981Z,99901.88
2023-01-02T08:08:43.898Z,99905.50
2023-01-02T08:11:14.270Z,99904.47
2023-01-02T08:13:42.022Z,99897.56
2023-01-02T08:16:11.198Z,99894.53
2023-01-02T08:18:38.823Z,99898.31
2023-01-02T08:21:06.878Z,99910.38
2023-01-02T08:23:34.895Z,99909.91
2023-01-02T08:26:03.331Z,99903.53
2023-01-02T08:28:32.829Z,99905.97
2023-01-02T08:31:01.082Z,99903.41
2023-01-02T08:33:28.745Z,99906.63
2023-01-02T08:35:56.899Z,99892.00
2023-01-02T08:38:24.532Z,99905.94
2023-01-02T08:40:52.173Z,99888.72
2023-01-02T08:43:19.698Z,99884.25
2023-01-02T08:45:48.532Z,99892.88
2023-01-02T08:48:20.524Z,99888.03
2023-01-02T08:50:49.105Z,99884.75
2023-01-02T08:53:16.588Z,99888.81
2023-01-02T08:55:44.034Z,99894.09
2023-01-02T08:58:11.641Z,99904.78
2023-01-02T09:00:39.097Z,99901.28
2023-01-02T09:03:08.054Z,99905.72
2023-01-02T09:05:35.539Z,99914.75
2023-01-02T09:08:03.297Z,99902.50
2023-01-02T09:10:30.748Z,99908.84
2023-01-02T09:12:59.173Z,99896.06
2023-01-02T09:15:26.757Z,99906.84
2023-01-02T09:17:54.268Z,99906.31
2023-01-02T09:20:23.062Z,99909.13
2023-01-02T09:22:50.550Z,99914.81
2023-01-02T09:25:23.858Z,99918.16
2023-01-02T09:27:52.650Z,99913.38
2023-01-02T09:30:20.472Z,99921.22
2023-01-02T09:32:49.024Z,99915.97
2023-01-02T09:35:16.694Z,99922.69
2023-01-02T09:37:45.877Z,99924.47
2023-01-02T09:40:14.365Z,99924.47
2023-01-02T09:42:42.335Z,99926.19
2023-01-02T09:45:11.325Z,99921.97
2023-01-02T09:47:40.347Z,99918.91
2023-01-02T09:50:12.260Z,99926.88
2023-01-02T09:52:43.226Z,99921.50
2023-01-02T09:55:18.227Z,99922.78
2023-01-02T09:57:51.820Z,99930.78
2023-01-02T10:00:21.104Z,99921.44
2023-01-02T10:03:04.177Z,99928.72
2023-01-02T10:06:09.910Z,99928.50
2023-01-02T10:08:44.675Z,99929.72
2023-01-02T10:11:25.424Z,99920.97
2023-01-02T10:16:46.774Z,99927.38
2023-01-02T10:19:18.531Z,99926.34
2023-01-02T10:21:47.834Z,99927.91
2023-01-02T10:24:18.459Z,99916.75
2023-01-02T10:26:49.619Z,99921.75
2023-01-02T10:29:20.387Z,99910.25
2023-01-02T10:31:51.079Z,99919.34
2023-01-02T10:34:21.050Z,99921.94
2023-01-02T10:36:49.686Z,99925.28
2023-01-02T10:39:18.985Z,99928.19
2023-01-02T10:41:50.155Z,99925.16
2023-01-02T10:44:23.541Z,99910.53
2023-01-02T10:46:51.051Z,99909.09
2023-01-02T10:49:19.521Z,99914.47
2023-01-02T10:51:52.050Z,99911.78
2023-01-02T10:54:19.573Z,99910.28
2023-01-02T10:56:50.641Z,99901.28
2023-01-02T10:59:23.220Z,99905.69
2023-01-02T11:01:52.754Z,99900.31
2023-01-02T11:04:22.876Z,99899.03
2023-01-02T11:06:53.499Z,99908.34
2023-01-02T11:09:22.804Z,99905.91
2023-01-02T11:11:52.875Z,99900.31
2023-01-02T11:14:23.454Z,99898.94
2023-01-02T11:16:51.415Z,99888.97
2023-01-02T11:19:27.490Z,99919.25
2023-01-02T11:21:57.218Z,99918.34
2023-01-02T11:24:27.151Z,99907.69
2023-01-02T11:26:56.750Z,99905.41
2023-01-02T11:29:30.439Z,99909.19
2023-01-02T11:32:00.957Z,99905.34
2023-01-02T11:34:34.464Z,99916.84
2023-01-02T11:37:04.316Z,99904.00
2023-01-02T11:39:33.937Z,99913.56
2023-01-02T11:42:28.361Z,99912.75
2023-01-02T11:45:00.644Z,99902.66
2023-01-02T11:47:33.459Z,99909.56
2023-01-02T11:50:01.707Z,99915.09
2023-01-02T11:52:34.837Z,99907.16
2023-01-02T11:55:10.520Z,99928.16
2023-01-02T11:57:43.718Z,99932.63
2023-01-02T12:00:13.973Z,99940.75
2023-01-02T12:02:43.562Z,99949.69
2023-01-02T12:05:13.718Z,99942.78
2023-01-02T12:07:46.024Z,99949.66
2023-01-02T12:10:31.784Z,99957.31
2023-01-02T12:13:14.097Z,99962.81
2023-01-02T12:16:02.845Z,99957.91
2023-01-02T12:18:43.936Z,99952.59
2023-01-02T12:21:16.693Z,99970.34
2023-01-02T12:24:10.947Z,99972.63
2023-01-02T12:26:44.453Z,99967.44
2023-01-02T12:29:47.018Z,99973.38
2023-01-02T12:32:50.259Z,99984.91
2023-01-02T12:35:35.922Z,99999.75
2023-01-02T12:38:05.667Z,100012.31
2023-01-02T12:40:44.868Z,100011.28
2023-01-02T12:43:43.028Z,100029.19
2023-01-02T12:46:20.366Z,100030.53
2023-01-02T12:49:05.285Z,100031.47
2023-01-02T12:51:38.471Z,100036.59
2023-01-02T12:54:20.881Z,100039.53
2023-01-02T12:56:55.021Z,100035.34
2023-01-02T12:59:44.847Z,100030.41
2023-01-02T13:02:22.789Z,100040.53
2023-01-02T13:04:54.810Z,100037.34
2023-01-02T13:07:26.453Z,100036.75
2023-01-02T13:09:54.608Z,100049.03
2023-01-02T13:12:23.764Z,100053.66
2023-01-02T13:14:53.536Z,100048.50
2023-01-02T13:17:36.079Z,100049.06
2023-01-02T13:20:08.090Z,100046.34
2023-01-02T13:22:41.949Z,100039.50
2023-01-02T13:25:13.838Z,100050.41
2023-01-02T13:27:41.769Z,100057.53
2023-01-02T13:30:48.016Z,100066.28
2023-01-02T13:33:23.943Z,100067.94
2023-01-02T13:35:51.754Z,100065.78
2023-01-02T13:38:20.399Z,100074.63
2023-01-02T13:40:55.493Z,100071.50
2023-01-02T13:43:26.228Z,100069.16
2023-01-02T13:45:56.823Z,100068.03
2023-01-02T13:48:30.764Z,100082.78
2023-01-02T13:51:03.550Z,100085.78
2023-01-02T13:53:36.850Z,100096.53
2023-01-02T13:56:10.087Z,100088.88
2023-01-02T13:59:00.283Z,100091.97
2023-01-02T14:02:04.924Z,100104.22
2023-01-02T14:04:39.812Z,100112.38
2023-01-02T14:07:48.846Z,100107.94
2023-01-02T14:10:46.971Z,100121.41
2023-01-02T14:13:27.675Z,100117.78
2023-01-02T14:16:38.339Z,100134.13
2023-01-02T14:19:16.813Z,100133.97
2023-01-02T14:21:45.849Z,100138.25
2023-01-02T14:24:28.749Z,100143.75
2023-01-02T14:27:00.061Z,100155.47
2023-01-02T14:29:28.204Z,100156.41
2023-01-02T14:32:01.969Z,100165.09
2023-01-02T14:34:31.487Z,100167.00
2023-01-02T14:37:00.144Z,100173.94
2023-01-02T14:39:30.341Z,100172.38
2023-01-02T14:42:43.638Z,100178.31
2023-01-02T14:45:16.096Z,100178.97
2023-01-02T14:47:46.171Z,100186.88
2023-01-02T14:50:17.264Z,100191.81
2023-01-02T14:52:49.111Z,100195.94
2023-01-02T14:55:19.587Z,100205.38
2023-01-02T14:57:49.300Z,100196.50
2023-01-02T15:00:22.777Z,100206.03
2023-01-02T15:02:54.432Z,100210.75
2023-01-02T15:05:32.009Z,100202.19
2023-01-02T15:08:00.176Z,100213.47
2023-01-02T15:10:27.661Z,100228.13
2023-01-02T15:13:07.685Z,100226.41
2023-01-02T15:15:38.468Z,100225.00
2023-01-02T15:18:08.649Z,100237.59
2023-01-02T15:20:38.457Z,100250.97
2023-01-02T15:23:05.967Z,100248.41
2023-01-02T15:25:36.750Z,100245.91
2023-01-02T15:28:04.959Z,100251.06
2023-01-02T15:30:38.563Z,100256.28
2023-01-02T15:33:06.734Z,100245.06
2023-01-02T15:35:36.093Z,100253.50
2023-01-02T15:38:05.608Z,100245.44
2023-01-02T15:40:35.281Z,100247.25
2023-01-02T15:43:22.792Z,100256.97
2023-01-02T15:45:52.029Z,100259.97
2023-01-02T15:48:21.632Z,100269.00
2023-01-02T15:50:50.013Z,100267.25
2023-01-02T15:53:23.685Z,100289.63
2023-01-02T15:55:51.197Z,100287.38
2023-01-02T15:58:28.044Z,100288.75
2023-01-02T16:01:15.926Z,100284.66
2023-01-02T16:04:03.594Z,100283.63
2023-01-02T16:06:34.047Z,100269.94
2023-01-02T16:09:05.291Z,100264.59
2023-01-02T16:11:33.774Z,100287.06
2023-01-02T16:14:21.966Z,100289.81
2023-01-02T16:16:52.306Z,100294.38
2023-01-02T16:19:23.948Z,100306.25
2023-01-02T16:21:53.993Z,100305.78
2023-01-02T16:24:24.842Z,100306.75
2023-01-02T16:26:52.495Z,100314.75
2023-01-02T16:29:21.228Z,100314.78
2023-01-02T16:31:54.242Z,100324.63
2023-01-02T16:34:33.387Z,100321.84
2023-01-02T16:37:34.239Z,100327.19
2023-01-02T16:40:59.827Z,100324.63
2023-01-02T16:43:30.738Z,100328.38
2023-01-02T16:45:59.282Z,100325.00
2023-01-02T16:48:29.903Z,100343.50
2023-01-02T16:50:58.912Z,100351.09
2023-01-02T16:53:29.067Z,100365.16
2023-01-02T16:55:58.283Z,100371.53
2023-01-02T16:58:26.173Z,100374.97
2023-01-02T17:00:54.610Z,100378.13
2023-01-02T17:03:24.235Z,100384.41
2023-01-02T17:06:01.268Z,100375.97
2023-01-02T17:08:30.350Z,100368.81
2023-01-02T17:10:59.537Z,100366.88
2023-01-02T17:13:27.525Z,100361.03
2023-01-02T17:15:55.088Z,100364.75
2023-01-02T17:18:22.968Z,100364.88
2023-01-02T17:20:51.181Z,100358.06
2023-01-02T17:23:19.732Z,100354.31
2023-01-02T17:25:47.688Z,100374.66
2023-01-02T17:28:16.566Z,100388.84
2023-01-02T17:30:44.599Z,100398.97
2023-01-02T17:33:12.173Z,100414.94
2023-01-02T17:35:39.835Z,100421.94
2023-01-02T17:38:07.523Z,100411.44
2023-01-02T17:40:35.323Z,100409.66
2023-01-02T17:43:02.877Z,100400.72
2023-01-02T17:45:32.916Z,100414.47
2023-01-02T17:48:07.361Z,100421.13
2023-01-02T17:50:37.820Z,100423.03
2023-01-02T17:53:05.320Z,100419.88
2023-01-02T17:55:32.843Z,100416.75
2023-01-02T17:58:00.948Z,100425.47
2023-01-02T18:00:28.871Z,100431.19
2023-01-02T18:02:57.752Z,100439.25
2023-01-02T18:05:25.296Z,100445.44
2023-01-02T18:07:52.815Z,100446.88
2023-01-02T18:10:21.418Z,100440.47
2023-01-02T18:12:50.873Z,100445.53
2023-01-02T18:15:21.442Z,100451.44
2023-01-02T18:17:49.378Z,100460.41
2023-01-02T18:20:22.835Z,100466.97
2023-01-02T18:22:51.095Z,100460.25
2023-01-02T18:25:20.864Z,100461.34
2023-01-02T18:27:49.158Z,100460.16
2023-01-02T18:30:19.706Z,100466.34
2023-01-02T18:32:47.677Z,100466.38
2023-01-02T18:35:54.879Z,100485.25
2023-01-02T18:38:20.037Z,100475.69
2023-01-02T18:40:47.523Z,100483.88
2023-01-02T18:43:26.672Z,100493.56
2023-01-02T18:45:57.889Z,100484.78
2023-01-02T18:48:25.607Z,100492.63
2023-01-02T18:50:58.192Z,100495.56
2023-01-02T18:53:29.553Z,100487.09
2023-01-02T18:56:03.236Z,100483.38
2023-01-02T18:58:43.423Z,100475.66
2023-01-02T19:01:27.750Z,100480.97
2023-01-02T19:04:22.347Z,100480.16
2023-01-02T19:06:56.760Z,100488.94
2023-01-02T19:09:28.003Z,100490.78
2023-01-02T19:12:16.939Z,100488.31
2023-01-02T19:14:45.446Z,100500.53
2023-01-02T19:17:20.813Z,100503.59
2023-01-02T19:19:48.422Z,100515.19
2023-01-02T19:22:21.072Z,100523.16
2023-01-02T19:24:48.661Z,100525.72
2023-01-02T19:27:25.516Z,100537.69
2023-01-02T19:29:53.995Z,100540.94
2023-01-02T19:32:28.316Z,100551.81
2023-01-02T19:34:58.049Z,100550.06
2023-01-02T19:37:32.375Z,100559.97
2023-01-02T19:40:02.043Z,100558.91
2023-01-02T19:42:31.928Z,100562.69
2023-01-02T19:45:00.881Z,100566.91
2023-01-02T19:47:29.958Z,100582.19
2023-01-02T19:49:57.675Z,100583.03
2023-01-02T19:52:26.559Z,100595.53
2023-01-02T19:54:55.711Z,100593.69
2023-01-02T19:57:24.100Z,100600.09
2023-01-02T19:59:52.572Z,100604.75
2023-01-02T20:02:22.104Z,100596.41
2023-01-02T20:04:52.244Z,100606.28
2023-01-02T20:07:19.972Z,100603.56
2023-01-02T20:09:47.494Z,100596.91
2023-01-02T20:12:34.217Z,100601.22
2023-01-02T20:15:04.763Z,100599.75
2023-01-02T20:17:32.618Z,100603.78
2023-01-02T20:20:00.288Z,100607.50
2023-01-02T20:22:28.509Z,100608.16
2023-01-02T20:24:56.329Z,100620.97
2023-01-02T20:27:25.264Z,100620.75
2023-01-02T20:29:55.057Z,100618.44
2023-01-02T20:32:23.425Z,100619.28
2023-01-02T20:34:51.095Z,100626.78
2023-01-02T20:37:20.980Z,100633.63
2023-01-02T20:39:49.897Z,100632.78
2023-01-02T20:42:17.765Z,100631.59
2023-01-02T20:44:47.009Z,100633.19
2023-01-02T20:47:14.495Z,100632.50
2023-01-02T20:49:42.346Z,100640.50
2023-01-02T20:52:10.085Z,100640.06
2023-01-02T20:54:37.636Z,100655.41
2023-01-02T20:57:05.258Z,100653.78
2023-01-02T20:59:32.813Z,100667.75
2023-01-02T21:02:01.784Z,100663.75
2023-01-02T21:04:34.554Z,100669.53
2023-01-02T21:07:04.662Z,100674.75
2023-01-02T21:09:32.207Z,100679.41
2023-01-02T21:11:59.742Z,100683.81
2023-01-02T21:14:29.083Z,100687.41
2023-01-02T21:17:01.223Z,100688.41
2023-01-02T21:19:28.688Z,100689.97
2023-01-02T21:21:56.191Z,100693.47
2023-01-02T21:24:23.692Z,100698.16
2023-01-02T21:26:51.167Z,100705.28
2023-01-02T21:29:18.645Z,100701.69
2023-01-02T21:31:46.179Z,100709.63
2023-01-02T21:34:15.016Z,100709.69
2023-01-02T21:36:42.471Z,100707.81
2023-01-02T21:39:10.498Z,100712.47
2023-01-02T21:41:55.788Z,100717.25
2023-01-02T21:44:23.485Z,100715.13
2023-01-02T21:46:51.001Z,100723.06
2023-01-02T21:49:21.111Z,100735.63
2023-01-02T21:51:48.576Z,100737.53
2023-01-02T21:54:16.061Z,100741.25
2023-01-02T21:56:43.551Z,100744.81
2023-01-02T21:59:11.106Z,100743.97
2023-01-02T22:01:38.938Z,100750.81
2023-01-02T22:04:06.573Z,100761.41
2023-01-02T22:06:36.670Z,100763.16
2023-01-02T22:09:04.837Z,100759.59
2023-01-02T22:11:50.003Z,100771.16
2023-01-02T22:14:17.469Z,100780.03
2023-01-02T22:16:44.979Z,100781.00
2023-01-02T22:19:12.488Z,100786.25
2023-01-02T22:21:42.056Z,100787.13
2023-01-02T22:24:10.005Z,100789.97
2023-01-02T22:26:37.968Z,100793.47
2023-01-02T22:29:05.877Z,100798.97
2023-01-02T22:31:33.881Z,100795.34
2023-01-02T22:34:01.611Z,100799.81
2023-01-02T22:36:31.341Z,100795.41
2023-01-02T22:39:27.143Z,100810.50
2023-01-02T22:41:52.048Z,100809.63
2023-01-02T22:44:22.421Z,100816.03
2023-01-02T22:46:51.661Z,100819.66
2023-01-02T22:49:20.839Z,100819.59
2023-01-02T22:52:06.430Z,100820.50
2023-01-02T22:54:36.038Z,100828.50
2023-01-02T22:57:03.636Z,100821.47
2023-01-02T22:59:31.109Z,100827.66
2023-01-02T23:01:58.685Z,100830.34
2023-01-02T23:04:26.269Z,100833.03
2023-01-02T23:07:22.838Z,100833.06
2023-01-02T23:09:43.164Z,100834.00
2023-01-02T23:12:10.631Z,100836.66
2023-01-02T23:14:38.133Z,100845.59
2023-01-02T23:17:23.501Z,100850.09
2023-01-02T23:19:51.379Z,100856.41
2023-01-02T23:22:18.834Z,100852.69
2023-01-02T23:24:47.729Z,100858.97
2023-01-02T23:27:15.455Z,100855.44
2023-01-02T23:29:42.961Z,100857.97
2023-01-02T23:32:11.261Z,100852.84
2023-01-02T23:34:38.901Z,100864.34
2023-01-02T23:37:06.408Z,100862.63
2023-01-02T23:39:35.103Z,100867.97
2023-01-02T23:42:04.025Z,100868.00
2023-01-02T23:44:31.834Z,100871.47
2023-01-02T23:47:01.794Z,100882.06
2023-01-02T23:49:33.084Z,100880.31
2023-01-02T23:52:00.612Z,100894.56
2023-01-02T23:54:28.257Z,100898.16
2023-01-02T23:56:55.731Z,100905.22
2023-01-02T23:59:25.807Z,100898.97
